createdAt,value
2023-02-22T00:02:52.735Z,85.47
2023-02-22T00:07:58.390Z,82.10
2023-02-22T00:13:02.081Z,75.68
2023-02-22T00:18:07.153Z,73.20
2023-02-22T00:23:16.056Z,76.22
2023-02-22T00:28:19.994Z,73.90
2023-02-22T00:33:24.895Z,79.32
2023-02-22T00:38:29.973Z,72.28
2023-02-22T00:43:33.734Z,69.47
2023-02-22T00:48:37.594Z,76.68
2023-02-22T00:53:42.640Z,74.05
2023-02-22T00:58:46.332Z,75.53
2023-02-22T01:03:49.971Z,76.32
2023-02-22T01:08:55.583Z,73.20
2023-02-22T01:14:00.809Z,74.85
2023-02-22T01:19:06.235Z,78.00
2023-02-22T01:24:16.173Z,77.18
2023-02-22T01:29:21.174Z,79.10
2023-02-22T01:34:26.102Z,90.95
2023-02-22T01:39:31.223Z,97.95
2023-02-22T01:44:37.045Z,117.13
2023-02-22T01:49:49.175Z,104.28
2023-02-22T01:54:59.600Z,107.70
2023-02-22T02:00:10.877Z,77.70
2023-02-22T02:05:16.409Z,98.87
2023-02-22T02:10:24.313Z,95.65
2023-02-22T02:15:30.779Z,93.37
2023-02-22T02:20:44.151Z,97.30
2023-02-22T02:26:15.472Z,146.82
2023-02-22T02:32:10.119Z,190.77
2023-02-22T02:37:23.191Z,94.60
2023-02-22T02:42:34.222Z,110.43
2023-02-22T02:47:43.442Z,112.85
2023-02-22T02:52:50.253Z,224.35
2023-02-22T02:57:53.968Z,210.43
2023-02-22T03:03:12.006Z,156.50
2023-02-22T03:08:25.126Z,141.93
2023-02-22T03:13:36.313Z,122.97
2023-02-22T03:18:51.813Z,204.90
2023-02-22T03:24:04.652Z,164.93
2023-02-22T03:29:10.971Z,101.10
2023-02-22T03:34:20.173Z,119.05
2023-02-22T03:39:31.049Z,148.82
2023-02-22T03:44:40.256Z,141.20
2023-02-22T03:49:50.595Z,143.02
2023-02-22T03:54:56.895Z,105.78
2023-02-22T04:00:00.674Z,84.68
2023-02-22T04:05:06.071Z,100.82
2023-02-22T04:10:12.917Z,125.55
2023-02-22T04:15:20.332Z,112.57
2023-02-22T04:20:26.185Z,70.43
2023-02-22T04:25:31.693Z,83.45
2023-02-22T04:30:41.809Z,94.37
2023-02-22T04:35:47.974Z,63.17
2023-02-22T04:40:53.543Z,80.15
2023-02-22T04:45:57.641Z,72.15
2023-02-22T04:51:01.449Z,70.55
2023-02-22T04:56:08.029Z,96.87
2023-02-22T05:01:15.308Z,86.37
2023-02-22T05:06:20.006Z,79.93
2023-02-22T05:11:25.086Z,104.22
2023-02-22T05:16:28.911Z,61.85
2023-02-22T05:21:32.619Z,62.65
2023-02-22T05:26:37.724Z,53.67
2023-02-22T05:31:42.297Z,51.20
2023-02-22T05:36:46.467Z,56.58
2023-02-22T05:41:51.596Z,58.28
2023-02-22T05:46:55.325Z,62.80
2023-02-22T05:51:59.881Z,63.08
2023-02-22T05:57:05.035Z,54.72
2023-02-22T06:02:09.529Z,63.13
2023-02-22T06:07:14.205Z,61.10
2023-02-22T06:12:19.363Z,55.97
2023-02-22T06:17:23.065Z,60.90
2023-02-22T06:22:26.798Z,59.88
2023-02-22T06:27:33.893Z,56.03
2023-02-22T06:32:37.603Z,67.35
2023-02-22T06:37:41.343Z,49.78
2023-02-22T06:42:49.348Z,50.20
2023-02-22T06:47:53.113Z,52.65
2023-02-22T06:52:57.534Z,56.37
2023-02-22T06:58:03.856Z,50.78
2023-02-22T07:03:07.596Z,52.58
2023-02-22T07:08:12.319Z,57.58
2023-02-22T07:13:17.523Z,54.03
2023-02-22T07:18:21.209Z,54.80
2023-02-22T07:23:25.336Z,54.78
2023-02-22T07:28:30.475Z,55.05
2023-02-22T07:33:34.273Z,51.17
2023-02-22T07:38:37.942Z,47.33
2023-02-22T07:43:43.180Z,52.85
2023-02-22T07:48:46.854Z,48.35
2023-02-22T07:53:50.582Z,53.00
2023-02-22T07:58:55.674Z,48.38
2023-02-22T08:03:59.407Z,50.17
2023-02-22T08:09:03.124Z,53.95
2023-02-22T08:14:08.281Z,46.17
2023-02-22T08:19:11.993Z,48.70
2023-02-22T08:24:15.777Z,49.00
2023-02-22T08:29:23.757Z,45.45
2023-02-22T08:34:27.968Z,46.50
2023-02-22T08:39:31.690Z,47.08
2023-02-22T08:44:36.971Z,45.38
2023-02-22T08:49:42.124Z,45.30
2023-02-22T08:54:46.702Z,41.25
2023-02-22T08:59:53.359Z,46.72
2023-02-22T09:04:57.061Z,51.05
2023-02-22T09:10:00.811Z,59.42
2023-02-22T09:15:06.267Z,54.70
2023-02-22T09:20:12.422Z,54.88
2023-02-22T09:25:17.676Z,54.15
2023-02-22T09:30:26.147Z,48.17
2023-02-22T09:40:40.975Z,46.05
2023-02-22T09:45:55.322Z,41.92
2023-02-22T09:51:03.100Z,45.90
2023-02-22T09:56:11.446Z,47.28
2023-02-22T10:01:27.074Z,48.08
2023-02-22T10:06:33.582Z,45.35
2023-02-22T10:11:52.353Z,40.53
2023-02-22T10:17:06.240Z,41.50
2023-02-22T10:22:28.156Z,38.50
2023-02-22T10:27:35.188Z,38.78
2023-02-22T10:32:45.407Z,36.30
2023-02-22T10:37:52.873Z,32.10
2023-02-22T10:42:57.426Z,30.80
2023-02-22T10:48:08.593Z,30.35
2023-02-22T10:53:15.298Z,27.33
2023-02-22T10:58:19.164Z,27.15
2023-02-22T11:03:25.201Z,26.92
2023-02-22T11:08:32.870Z,26.10
2023-02-22T11:13:40.047Z,24.63
2023-02-22T11:18:45.592Z,28.67
2023-02-22T11:23:51.204Z,29.37
2023-02-22T11:39:00.966Z,26.50
2023-02-22T11:44:22.274Z,25.95
2023-02-22T11:49:35.589Z,24.00
2023-02-22T11:54:53.095Z,31.95
2023-02-22T12:00:12.206Z,22.50
2023-02-22T12:05:29.979Z,24.17
2023-02-22T12:10:48.294Z,26.85
2023-02-22T12:21:05.605Z,27.27
2023-02-22T12:26:16.573Z,27.20
2023-02-22T12:31:25.238Z,25.00
2023-02-22T12:36:36.696Z,24.60
2023-02-22T12:41:48.159Z,29.48
2023-02-22T12:46:54.358Z,30.10
2023-02-22T12:52:19.504Z,28.80
2023-02-22T12:57:37.126Z,31.75
2023-02-22T13:02:47.150Z,29.33
2023-02-22T13:08:02.496Z,29.25
2023-02-22T13:13:15.691Z,32.50
2023-02-22T13:18:26.736Z,27.65
2023-02-22T13:23:44.445Z,34.63
2023-02-22T13:28:57.123Z,33.55
2023-02-22T13:34:19.411Z,30.65
2023-02-22T13:40:02.473Z,34.30
2023-02-22T13:45:28.839Z,32.33
2023-02-22T13:50:49.211Z,30.42
2023-02-22T13:55:59.506Z,34.38
2023-02-22T14:01:03.178Z,30.75
2023-02-22T14:06:08.636Z,31.85
2023-02-22T14:11:52.075Z,34.72
2023-02-22T14:17:28.579Z,35.28
2023-02-22T14:22:32.560Z,33.40
2023-02-22T14:27:41.528Z,37.00
2023-02-22T14:32:48.901Z,37.92
2023-02-22T14:37:57.065Z,39.67
2023-02-22T14:43:04.354Z,41.58
2023-02-22T14:48:24.954Z,40.60
2023-02-22T14:53:36.699Z,37.20
2023-02-22T14:58:46.057Z,36.45
2023-02-22T15:04:02.094Z,43.50
2023-02-22T15:09:23.540Z,43.45
2023-02-22T15:14:27.335Z,40.88
2023-02-22T15:19:36.329Z,43.83
2023-02-22T15:24:40.832Z,47.10
2023-02-22T15:29:45.909Z,46.35
2023-02-22T15:34:50.971Z,46.70
2023-02-22T15:40:05.999Z,45.97
2023-02-22T15:45:19.902Z,44.55
2023-02-22T15:50:26.864Z,41.75
2023-02-22T15:55:33.531Z,50.83
2023-02-22T16:00:38.825Z,57.50
2023-02-22T16:05:46.991Z,48.63
2023-02-22T16:10:59.091Z,53.90
2023-02-22T16:16:05.711Z,55.25
2023-02-22T16:21:13.257Z,51.47
2023-02-22T16:26:24.079Z,53.13
2023-02-22T16:31:29.803Z,57.33
2023-02-22T16:36:43.141Z,53.03
2023-02-22T16:41:46.932Z,60.90
2023-02-22T16:46:50.621Z,63.10
2023-02-22T16:51:59.697Z,62.40
2023-02-22T16:57:05.131Z,74.18
2023-02-22T17:02:15.412Z,78.90
2023-02-22T17:07:29.779Z,93.50
2023-02-22T17:12:33.664Z,99.93
2023-02-22T17:17:37.345Z,102.75
2023-02-22T17:22:43.066Z,105.47
2023-02-22T17:27:46.949Z,95.93
2023-02-22T17:32:51.586Z,97.65
2023-02-22T17:37:56.656Z,102.00
2023-02-22T17:43:01.846Z,96.25
2023-02-22T17:48:06.124Z,95.72
2023-02-22T17:53:11.970Z,94.07
2023-02-22T17:58:16.189Z,100.40
2023-02-22T18:03:25.337Z,112.78
2023-02-22T18:08:32.239Z,98.62
2023-02-22T18:13:36.176Z,102.32
2023-02-22T18:18:39.913Z,103.12
2023-02-22T18:23:45.486Z,106.20
2023-02-22T18:28:50.023Z,97.93
2023-02-22T18:33:54.023Z,99.75
2023-02-22T18:38:59.089Z,99.32
2023-02-22T18:44:04.020Z,98.60
2023-02-22T18:49:07.732Z,103.55
2023-02-22T18:54:14.532Z,94.18
2023-02-22T18:59:18.464Z,116.55
2023-02-22T19:04:22.213Z,111.25
2023-02-22T19:09:27.491Z,121.45
2023-02-22T19:14:31.281Z,112.97
2023-02-22T19:19:36.295Z,120.07
2023-02-22T19:24:41.452Z,124.07
2023-02-22T19:29:45.684Z,114.10
2023-02-22T19:35:02.314Z,116.60
2023-02-22T19:40:10.735Z,125.62
2023-02-22T19:50:18.740Z,125.10
2023-02-22T19:55:23.992Z,117.03
2023-02-22T20:00:29.045Z,116.93
2023-02-22T20:05:33.455Z,121.22
2023-02-22T20:10:38.476Z,120.37
2023-02-22T20:15:45.336Z,117.70
2023-02-22T20:20:49.297Z,116.32
2023-02-22T20:25:56.156Z,122.75
2023-02-22T20:30:59.974Z,118.53
2023-02-22T20:36:05.537Z,114.25
2023-02-22T20:41:14.606Z,118.72
2023-02-22T20:46:18.657Z,125.90
2023-02-22T20:51:22.812Z,122.53
2023-02-22T20:56:30.644Z,125.50
2023-02-22T21:01:34.685Z,118.78
2023-02-22T21:06:39.599Z,122.20
2023-02-22T21:11:45.580Z,112.72
2023-02-22T21:16:51.376Z,114.47
2023-02-22T21:21:56.496Z,114.75
2023-02-22T21:27:01.591Z,123.35
2023-02-22T21:32:06.082Z,118.10
2023-02-22T21:37:09.899Z,108.97
2023-02-22T21:42:14.935Z,115.18
2023-02-22T21:47:18.633Z,122.78
2023-02-22T21:52:22.806Z,127.43
2023-02-22T21:57:27.904Z,131.75
2023-02-22T22:02:32.220Z,127.80
2023-02-22T22:07:35.991Z,129.70
2023-02-22T22:12:42.457Z,132.00
2023-02-22T22:17:46.273Z,128.48
2023-02-22T22:22:49.964Z,126.50
2023-02-22T22:27:56.116Z,128.40
2023-02-22T22:32:59.831Z,115.35
2023-02-22T22:38:03.813Z,121.30
2023-02-22T22:43:08.896Z,104.80
2023-02-22T22:48:14.949Z,112.75
2023-02-22T22:53:18.730Z,114.88
2023-02-22T22:58:24.005Z,113.15
2023-02-22T23:03:28.053Z,108.60
2023-02-22T23:08:43.013Z,116.57
2023-02-22T23:13:48.144Z,112.95
2023-02-22T23:18:51.960Z,115.07
2023-02-22T23:23:59.190Z,117.93
2023-02-22T23:29:05.090Z,118.75
2023-02-22T23:34:11.044Z,114.28
2023-02-22T23:39:17.727Z,127.62
2023-02-22T23:44:23.108Z,124.10
2023-02-22T23:49:35.650Z,121.00
2023-02-22T23:54:43.723Z,121.90
